createdAt,value
2019-01-08T00:01:51.580Z,21.47
2019-01-08T00:05:55.578Z,18.30
2019-01-08T00:09:59.452Z,15.40
2019-01-08T00:14:02.945Z,22.07
2019-01-08T00:18:06.322Z,19.33
2019-01-08T00:22:10.279Z,17.33
2019-01-08T00:26:14.067Z,13.00
2019-01-08T00:30:17.949Z,16.53
2019-01-08T00:34:21.869Z,22.53
2019-01-08T00:38:25.773Z,18.27
2019-01-08T00:42:30.067Z,20.73
2019-01-08T00:46:34.291Z,21.30
2019-01-08T00:50:38.628Z,21.47
2019-01-08T00:54:42.937Z,19.53
2019-01-08T00:58:51.438Z,21.93
2019-01-08T01:02:51.988Z,23.20
2019-01-08T01:06:55.974Z,26.30
2019-01-08T01:10:59.356Z,20.93
2019-01-08T01:15:03.258Z,19.13
2019-01-08T01:19:06.687Z,27.77
2019-01-08T01:23:10.031Z,21.63
2019-01-08T01:27:13.823Z,29.37
2019-01-08T01:31:17.232Z,25.90
2019-01-08T01:35:22.003Z,21.07
2019-01-08T01:39:26.502Z,22.13
2019-01-08T01:43:30.448Z,24.20
2019-01-08T01:47:34.358Z,27.07
2019-01-08T01:51:38.436Z,31.73
2019-01-08T01:55:42.284Z,25.97
2019-01-08T01:59:46.173Z,25.70
2019-01-08T02:03:49.969Z,29.90
2019-01-08T02:07:53.931Z,18.23
2019-01-08T02:11:57.314Z,21.60
2019-01-08T02:16:01.291Z,22.23
2019-01-08T02:20:05.367Z,18.30
2019-01-08T02:24:08.864Z,30.73
2019-01-08T02:28:12.254Z,23.90
2019-01-08T02:32:16.135Z,28.47
2019-01-08T02:36:21.028Z,19.57
2019-01-08T02:40:25.091Z,22.40
2019-01-08T02:44:28.976Z,12.63
2019-01-08T02:48:32.986Z,5.33
2019-01-08T02:52:36.331Z,6.50
2019-01-08T02:56:39.758Z,15.50
2019-01-08T03:00:43.742Z,10.60
2019-01-08T03:04:47.614Z,14.73
2019-01-08T03:08:51.281Z,16.35
2019-01-08T03:12:55.253Z,14.80
2019-01-08T03:16:59.412Z,8.80
2019-01-08T03:21:03.305Z,22.70
2019-01-08T03:25:07.319Z,21.63
2019-01-08T03:29:10.755Z,15.33
2019-01-08T03:33:14.655Z,18.27
2019-01-08T03:37:18.171Z,21.17
2019-01-08T03:41:21.562Z,15.67
2019-01-08T03:45:25.498Z,18.27
2019-01-08T03:49:29.300Z,14.07
2019-01-08T03:53:33.395Z,15.30
2019-01-08T03:57:36.936Z,17.20
2019-01-08T04:01:40.742Z,10.73
2019-01-08T04:05:44.134Z,6.97
2019-01-08T04:09:47.533Z,17.03
2019-01-08T04:13:51.412Z,7.87
2019-01-08T04:17:55.267Z,11.27
2019-01-08T04:21:59.106Z,13.37
2019-01-08T04:26:03.315Z,16.00
2019-01-08T04:30:08.019Z,17.30
2019-01-08T04:34:12.149Z,16.87
2019-01-08T04:38:15.530Z,16.07
2019-01-08T04:42:19.768Z,12.63
2019-01-08T04:46:23.695Z,13.00
2019-01-08T04:50:27.826Z,16.40
2019-01-08T04:54:34.577Z,11.60
2019-01-08T04:58:38.501Z,15.73
2019-01-08T05:02:42.416Z,19.30
2019-01-08T05:06:46.318Z,18.30
2019-01-08T05:10:50.695Z,18.97
2019-01-08T05:14:54.928Z,24.97
2019-01-08T05:18:58.433Z,17.13
2019-01-08T05:23:02.390Z,13.97
2019-01-08T05:27:06.101Z,17.27
2019-01-08T05:31:10.375Z,13.80
2019-01-08T05:35:14.222Z,22.83
2019-01-08T05:39:19.570Z,31.10
2019-01-08T05:43:22.988Z,19.00
2019-01-08T05:47:26.929Z,22.50
2019-01-08T05:51:31.072Z,28.47
2019-01-08T05:55:35.064Z,23.93
2019-01-08T05:59:38.549Z,20.17
2019-01-08T06:03:42.513Z,26.33
2019-01-08T06:07:46.321Z,27.10
2019-01-08T06:11:50.363Z,19.10
2019-01-08T06:15:53.792Z,26.27
2019-01-08T06:19:57.627Z,22.00
2019-01-08T06:24:01.539Z,21.40
2019-01-08T06:28:05.816Z,19.90
2019-01-08T06:32:09.253Z,21.60
2019-01-08T06:36:12.735Z,25.13
2019-01-08T06:40:17.560Z,20.77
2019-01-08T06:44:21.123Z,30.00
2019-01-08T06:48:24.523Z,25.20
2019-01-08T06:52:28.709Z,22.80
2019-01-08T06:56:32.592Z,20.80
2019-01-08T07:00:36.057Z,24.20
2019-01-08T07:04:39.551Z,36.83
2019-01-08T07:08:43.141Z,26.17
2019-01-08T07:12:46.514Z,19.07
2019-01-08T07:16:49.989Z,23.17
2019-01-08T07:20:54.048Z,33.47
2019-01-08T07:24:57.956Z,27.50
2019-01-08T07:29:01.884Z,35.67
2019-01-08T07:33:05.431Z,27.67
2019-01-08T07:37:08.871Z,21.00
2019-01-08T07:41:13.930Z,27.60
2019-01-08T07:45:19.581Z,30.10
2019-01-08T07:49:23.466Z,28.30
2019-01-08T07:53:27.403Z,24.03
2019-01-08T07:57:31.218Z,29.97
2019-01-08T08:01:35.016Z,28.60
2019-01-08T08:05:39.047Z,36.87
2019-01-08T08:09:43.295Z,32.17
2019-01-08T08:13:47.479Z,35.07
2019-01-08T08:17:50.994Z,30.50
2019-01-08T08:21:54.859Z,30.70
2019-01-08T08:25:58.651Z,29.70
2019-01-08T08:30:02.242Z,36.90
2019-01-08T08:34:06.320Z,34.07
2019-01-08T08:38:10.351Z,27.53
2019-01-08T08:42:15.321Z,30.60
2019-01-08T08:46:19.210Z,42.33
2019-01-08T08:50:23.282Z,32.70
2019-01-08T08:54:27.699Z,27.90
2019-01-08T08:58:31.148Z,27.77
2019-01-08T09:02:35.072Z,32.97
2019-01-08T09:06:38.970Z,36.80
2019-01-08T09:10:42.393Z,39.10
2019-01-08T09:14:46.256Z,35.60
2019-01-08T09:18:50.576Z,32.87
2019-01-08T09:22:54.054Z,37.73
2019-01-08T09:26:57.546Z,17.83
2019-01-08T09:31:01.562Z,27.27
2019-01-08T09:35:05.250Z,20.27
2019-01-08T09:39:09.432Z,23.90
2019-01-08T09:43:13.713Z,32.30
2019-01-08T09:47:17.071Z,41.17
2019-01-08T09:51:21.077Z,25.23
2019-01-08T09:55:25.023Z,32.33
2019-01-08T09:59:29.135Z,25.73
2019-01-08T10:03:33.284Z,22.80
2019-01-08T10:07:37.270Z,32.37
2019-01-08T10:11:40.607Z,24.90
2019-01-08T10:15:44.038Z,22.17
2019-01-08T10:19:48.124Z,18.63
2019-01-08T10:23:51.710Z,31.23
2019-01-08T10:27:55.049Z,33.47
2019-01-08T10:31:58.453Z,32.60
2019-01-08T10:36:02.223Z,29.53
2019-01-08T10:40:06.691Z,28.77
2019-01-08T10:44:10.111Z,24.70
2019-01-08T10:48:13.559Z,26.00
2019-01-08T10:52:17.017Z,39.43
2019-01-08T10:56:20.880Z,27.90
2019-01-08T11:00:24.285Z,26.70
2019-01-08T11:04:28.427Z,27.80
2019-01-08T11:08:32.300Z,27.03
2019-01-08T11:12:36.122Z,29.27
2019-01-08T11:16:39.596Z,25.77
2019-01-08T11:20:43.723Z,37.97
2019-01-08T11:24:47.639Z,23.27
2019-01-08T11:28:51.775Z,31.33
2019-01-08T11:32:56.145Z,21.97
2019-01-08T11:36:59.717Z,23.77
2019-01-08T11:41:03.597Z,22.83
2019-01-08T11:45:09.673Z,19.00
2019-01-08T11:49:13.142Z,19.97
2019-01-08T11:53:17.185Z,23.33
2019-01-08T11:57:20.964Z,27.93
2019-01-08T12:01:24.898Z,21.13
2019-01-08T12:05:28.908Z,23.80
2019-01-08T12:09:32.705Z,21.53
2019-01-08T12:13:36.110Z,22.67
2019-01-08T12:17:40.075Z,14.60
2019-01-08T12:21:43.532Z,23.60
2019-01-08T12:25:47.516Z,13.47
2019-01-08T12:29:51.575Z,24.33
2019-01-08T12:33:55.401Z,26.90
2019-01-08T12:37:59.509Z,20.13
2019-01-08T12:42:03.582Z,25.20
2019-01-08T12:46:07.763Z,12.57
2019-01-08T12:50:11.222Z,18.77
2019-01-08T12:54:14.614Z,21.53
2019-01-08T12:58:18.628Z,18.47
2019-01-08T13:02:22.025Z,25.00
2019-01-08T13:06:25.924Z,21.23
2019-01-08T13:10:29.285Z,15.77
2019-01-08T13:14:33.123Z,21.50
2019-01-08T13:18:36.986Z,12.33
2019-01-08T13:22:40.822Z,18.93
2019-01-08T13:26:44.597Z,15.53
2019-01-08T13:30:48.828Z,20.50
2019-01-08T13:34:52.195Z,19.53
2019-01-08T13:38:58.740Z,19.40
2019-01-08T13:43:02.540Z,22.97
2019-01-08T13:47:06.654Z,15.57
2019-01-08T13:51:10.473Z,24.87
2019-01-08T13:55:13.900Z,16.43
2019-01-08T13:59:17.822Z,18.70
2019-01-08T14:03:21.846Z,11.13
2019-01-08T14:07:25.568Z,20.63
2019-01-08T14:11:29.311Z,20.70
2019-01-08T14:15:33.278Z,18.90
2019-01-08T14:19:37.022Z,21.57
2019-01-08T14:23:40.731Z,16.13
2019-01-08T14:27:44.596Z,18.37
2019-01-08T14:31:48.390Z,17.23
2019-01-08T14:35:52.130Z,24.40
2019-01-08T14:39:55.842Z,20.73
2019-01-08T14:43:59.579Z,23.37
2019-01-08T14:48:04.207Z,25.80
2019-01-08T14:52:08.255Z,22.43
2019-01-08T14:56:12.872Z,21.50
2019-01-08T15:00:17.026Z,7.87
2019-01-08T15:04:20.732Z,17.73
2019-01-08T15:08:24.462Z,11.67
2019-01-08T15:12:28.179Z,15.10
2019-01-08T15:16:31.907Z,19.27
2019-01-08T15:20:35.618Z,16.23
2019-01-08T15:24:39.374Z,23.47
2019-01-08T15:28:43.078Z,21.10
2019-01-08T15:32:46.822Z,14.13
2019-01-08T15:36:50.532Z,19.40
2019-01-08T15:40:54.378Z,20.87
2019-01-08T15:44:58.102Z,28.07
2019-01-08T15:49:01.919Z,19.40
2019-01-08T15:53:05.634Z,30.40
2019-01-08T15:57:10.450Z,14.50
2019-01-08T16:01:14.162Z,13.73
2019-01-08T16:05:18.263Z,30.47
2019-01-08T16:09:21.974Z,18.17
2019-01-08T16:13:25.718Z,29.97
2019-01-08T16:17:29.557Z,23.07
2019-01-08T16:21:33.298Z,24.10
2019-01-08T16:25:37.020Z,35.73
2019-01-08T16:29:40.754Z,14.67
2019-01-08T16:33:44.723Z,19.50
2019-01-08T16:37:48.542Z,23.57
2019-01-08T16:41:52.254Z,16.90
2019-01-08T16:45:57.904Z,25.40
2019-01-08T16:50:02.561Z,19.90
2019-01-08T16:54:06.305Z,20.90
2019-01-08T16:58:10.022Z,22.80
2019-01-08T17:02:14.026Z,34.10
2019-01-08T17:06:17.750Z,27.90
2019-01-08T17:10:21.798Z,24.43
2019-01-08T17:14:25.142Z,17.73
2019-01-08T17:18:28.469Z,24.87
2019-01-08T17:22:32.179Z,21.17
2019-01-08T17:26:35.994Z,29.63
2019-01-08T17:30:39.711Z,22.17
2019-01-08T17:34:43.446Z,23.10
2019-01-08T17:38:47.206Z,22.00
2019-01-08T17:42:50.579Z,17.73
2019-01-08T17:46:54.375Z,25.07
2019-01-08T17:50:58.266Z,19.50
2019-01-08T17:55:01.993Z,14.40
2019-01-08T17:59:10.330Z,29.87
2019-01-08T18:03:14.046Z,22.90
2019-01-08T18:07:17.358Z,18.63
2019-01-08T18:11:21.468Z,20.60
2019-01-08T18:15:25.547Z,19.23
2019-01-08T18:19:29.497Z,17.97
2019-01-08T18:23:33.258Z,12.63
2019-01-08T18:27:36.637Z,23.43
2019-01-08T18:31:40.935Z,23.70
2019-01-08T18:35:45.044Z,21.33
2019-01-08T18:39:49.067Z,25.27
2019-01-08T18:43:53.345Z,12.70
2019-01-08T18:47:56.835Z,12.57
2019-01-08T18:52:00.363Z,9.50
2019-01-08T18:56:04.374Z,13.60
2019-01-08T19:00:08.020Z,9.70
2019-01-08T19:04:11.854Z,5.90
2019-01-08T19:08:15.887Z,12.40
2019-01-08T19:12:24.984Z,9.20
2019-01-08T19:16:28.794Z,14.60
2019-01-08T19:20:32.794Z,19.60
2019-01-08T19:24:36.924Z,19.03
2019-01-08T19:28:40.829Z,11.13
2019-01-08T19:32:44.252Z,13.40
2019-01-08T19:36:48.263Z,20.23
2019-01-08T19:40:52.499Z,11.80
2019-01-08T19:44:55.866Z,12.93
2019-01-08T19:48:59.267Z,6.93
2019-01-08T19:53:03.022Z,9.50
2019-01-08T19:57:06.418Z,11.93
2019-01-08T20:01:10.717Z,8.77
2019-01-08T20:05:14.079Z,9.20
2019-01-08T20:09:25.181Z,12.10
2019-01-08T20:13:23.766Z,6.07
2019-01-08T20:17:27.092Z,9.00
2019-01-08T20:21:30.888Z,8.27
2019-01-08T20:25:34.662Z,16.07
2019-01-08T20:29:38.111Z,13.40
2019-01-08T20:33:42.430Z,12.37
2019-01-08T20:37:46.260Z,17.13
2019-01-08T20:41:50.132Z,12.40
2019-01-08T20:45:53.904Z,6.50
2019-01-08T20:49:57.718Z,9.90
2019-01-08T20:54:02.426Z,10.03
2019-01-08T20:58:05.745Z,9.77
2019-01-08T21:02:09.088Z,10.13
2019-01-08T21:06:12.947Z,10.17
2019-01-08T21:10:16.972Z,10.83
2019-01-08T21:14:20.490Z,12.40
2019-01-08T21:18:23.855Z,16.70
2019-01-08T21:22:27.767Z,15.57
2019-01-08T21:26:31.502Z,13.43
2019-01-08T21:30:35.427Z,14.27
2019-01-08T21:34:44.152Z,18.07
2019-01-08T21:38:44.967Z,5.90
2019-01-08T21:42:50.358Z,17.10
2019-01-08T21:46:54.186Z,8.93
2019-01-08T21:50:58.347Z,11.77
2019-01-08T21:55:01.948Z,4.60
2019-01-08T21:59:05.979Z,10.03
2019-01-08T22:03:09.912Z,9.57
2019-01-08T22:07:14.028Z,3.93
2019-01-08T22:11:17.998Z,7.70
2019-01-08T22:15:21.909Z,11.77
2019-01-08T22:19:25.773Z,12.03
2019-01-08T22:23:29.122Z,13.90
2019-01-08T22:27:33.122Z,10.80
2019-01-08T22:31:37.026Z,18.70
2019-01-08T22:35:42.025Z,18.90
2019-01-08T22:39:45.413Z,10.30
2019-01-08T22:43:49.294Z,10.63
2019-01-08T22:47:56.178Z,22.23
2019-01-08T22:52:00.016Z,11.40
2019-01-08T22:56:04.243Z,14.20
2019-01-08T23:00:16.289Z,12.77
2019-01-08T23:04:21.291Z,13.63
2019-01-08T23:08:25.203Z,12.23
2019-01-08T23:12:29.023Z,12.70
2019-01-08T23:16:33.047Z,6.67
2019-01-08T23:20:36.842Z,14.37
2019-01-08T23:24:40.707Z,14.30
2019-01-08T23:28:45.325Z,8.47
2019-01-08T23:32:49.375Z,13.00
2019-01-08T23:36:52.892Z,12.07
2019-01-08T23:40:56.822Z,19.47
2019-01-08T23:45:00.770Z,16.80
2019-01-08T23:49:04.736Z,14.90
2019-01-08T23:53:09.097Z,12.23
2019-01-08T23:57:16.025Z,14.73
